CheckWX is a tool to help pilots better visualize weather data.  It is not intended as a substitute for an official pre-flight weather briefing.

17:16:03 UTC

KMLI TAF
Quad City International Airport
Moline, Illinois, USA
KMLI 271735Z 2718/2818 15009KT P6SM SHRA BKN025 BKN090 TEMPO 2720/2724 P6SM SHRA SCT025 BKN035 FM280600 VRB04KT P6SM BKN022 FM281200 VRB04KT P6SM OVC011 FM281700 24007KT 6SM -RA BR OVC010

May-27@
18:00 UTC

May-27 @ 18:00 UTC

May-28@
06:00 UTC

May-28 @ 06:00 UTC

TAF KMLI 271735Z 2718/2818 15009KT P6SM SHRA BKN025 BKN090

Expired

Wind
  • 150° at 9 KTS
Conditions
Showers, Rain
Cloud Levels
  • Broken at 2,500' AGL
  • Broken at 9,000' AGL

May-27@
20:00 UTC

May-27 @ 20:00 UTC

May-28@
00:00 UTC

May-28 @ 00:00 UTC

TEMPO 2720/2724 P6SM SHRA SCT025 BKN035

Expired

Conditions
Showers, Rain
Cloud Levels
  • Scattered at 2,500' AGL
  • Broken at 3,500' AGL

May-28@
06:00 UTC

May-28 @ 06:00 UTC

May-28@
12:00 UTC

May-28 @ 12:00 UTC

FM280600 VRB04KT P6SM BKN022

Expired

Wind
  • Variable at 4 KTS
Cloud Levels
  • Broken at 2,200' AGL

May-28@
12:00 UTC

May-28 @ 12:00 UTC

May-28@
17:00 UTC

May-28 @ 17:00 UTC

FM281200 VRB04KT P6SM OVC011

Expired

Wind
  • Variable at 4 KTS
Cloud Levels
  • Overcast at 1,100' AGL

May-28@
17:00 UTC

May-28 @ 17:00 UTC

May-28@
18:00 UTC

May-28 @ 18:00 UTC

FM281700 24007KT 6SM -RA BR OVC010

From

From Standard forecast or significant change

Wind
  • 240° at 7 KTS
Conditions
Light Rain, Mist
Cloud Levels
  • Overcast at 1,000' AGL